Clipper 3 — ZMT3984 — position and weather

sailwx.info

Track history (hours):
 
Tides and Currents Weather Stations Pressure Air Temp Water Temp Dewpoint Dewpoint Depression Visibility Wind Speed Wind Dir Waves Ship Positions

Clipper 3

Last reported at 2015-Nov-04 05:30 UTC. Time now 2016-Feb-10 02:45 UTC.
Position S 36°51' E 174°59'.
Warning: this ship's position is months out of date.

Length 14 m; draft 1 m.

Type: High speed craft. MMSI: 512000741.

Date/timePositionNaut miles runAvg speedWind from/ knotsBaromVisibWave heightAir tempDewpointWater temp
2015-Nov-04 05:30S 36°51' E 174°59'10 5.3
2015-Nov-04 03:34S 36°51' E 174°46'6 0.8
2015-Nov-03 20:05S 36°51' E 174°53'0 0.0
2015-Nov-03 05:15S 36°51' E 174°53'6 3.5
2015-Nov-03 03:33S 36°51' E 174°46'0 0.0
2015-Nov-02 03:33S 36°51' E 174°46'6 1.4
2015-Nov-01 23:14S 36°51' E 174°53'0 0.0
2015-Nov-01 20:07S 36°51' E 174°53'3 5.1
2015-Nov-01 19:33S 36°50' E 174°50'3 3.0
2015-Nov-01 18:31S 36°51' E 174°46'6 0.3
2015-Oct-31 23:15S 36°51' E 174°53'3 0.5
2015-Oct-31 16:15S 36°50' E 174°49'4 0.1
2015-Oct-30 05:15S 36°51' E 174°54'6 3.6
2015-Oct-30 03:33S 36°51' E 174°46'6 2.6
2015-Oct-30 01:15S 36°51' E 174°53'0 0.1
2015-Oct-29 23:16S 36°51' E 174°54'0 0.1
2015-Oct-29 20:06S 36°51' E 174°54'4 6.8
2015-Oct-29 19:34S 36°50' E 174°49'2 2.4
2015-Oct-29 18:33S 36°50' E 174°46'6 0.4
2015-Oct-29 05:17S 36°51' E 174°54'3 1.9
2015-Oct-29 03:26S 36°50' E 174°49'4 1.7
2015-Oct-29 01:17S 36°51' E 174°54'0 0.0
2015-Oct-28 23:18S 36°51' E 174°54'0 0.1
2015-Oct-28 20:09S 36°51' E 174°53'3 4.8
2015-Oct-28 19:33S 36°50' E 174°50'3 3.1
2015-Oct-28 18:31S 36°51' E 174°46'0 0.0
2015-Oct-27 18:31S 36°51' E 174°46'6 0.4
2015-Oct-27 05:15S 36°51' E 174°53'6 3.5
2015-Oct-27 03:34S 36°51' E 174°46'5 2.0
2015-Oct-27 01:12S 36°50' E 174°52'2 0.8
2015-Oct-26 23:15S 36°51' E 174°53'0 0.0
2015-Oct-26 20:04S 36°51' E 174°53'  
Track history (hours):
 
Tides and Currents Weather Stations Pressure Air Temp Water Temp Dewpoint Dewpoint Depression Visibility Wind Speed Wind Dir Waves Ship Positions

Clipper 3

Last reported at 2015-Nov-04 05:30 UTC. Time now 2016-Feb-10 02:45 UTC.
Position S 36°51' E 174°59'.
Warning: this ship's position is months out of date.

Length 14 m; draft 1 m.

Type: High speed craft. MMSI: 512000741.

Date/timePositionNaut miles runAvg speedWind from/ knotsBaromVisibWave heightAir tempDewpointWater temp
2015-Nov-04 05:30S 36°51' E 174°59'10 5.3
2015-Nov-04 03:34S 36°51' E 174°46'6 0.8
2015-Nov-03 20:05S 36°51' E 174°53'0 0.0
2015-Nov-03 05:15S 36°51' E 174°53'6 3.5
2015-Nov-03 03:33S 36°51' E 174°46'0 0.0
2015-Nov-02 03:33S 36°51' E 174°46'6 1.4
2015-Nov-01 23:14S 36°51' E 174°53'0 0.0
2015-Nov-01 20:07S 36°51' E 174°53'3 5.1
2015-Nov-01 19:33S 36°50' E 174°50'3 3.0
2015-Nov-01 18:31S 36°51' E 174°46'6 0.3
2015-Oct-31 23:15S 36°51' E 174°53'3 0.5
2015-Oct-31 16:15S 36°50' E 174°49'4 0.1
2015-Oct-30 05:15S 36°51' E 174°54'6 3.6
2015-Oct-30 03:33S 36°51' E 174°46'6 2.6
2015-Oct-30 01:15S 36°51' E 174°53'0 0.1
2015-Oct-29 23:16S 36°51' E 174°54'0 0.1
2015-Oct-29 20:06S 36°51' E 174°54'4 6.8
2015-Oct-29 19:34S 36°50' E 174°49'2 2.4
2015-Oct-29 18:33S 36°50' E 174°46'6 0.4
2015-Oct-29 05:17S 36°51' E 174°54'3 1.9
2015-Oct-29 03:26S 36°50' E 174°49'4 1.7
2015-Oct-29 01:17S 36°51' E 174°54'0 0.0
2015-Oct-28 23:18S 36°51' E 174°54'0 0.1
2015-Oct-28 20:09S 36°51' E 174°53'3 4.8
2015-Oct-28 19:33S 36°50' E 174°50'3 3.1
2015-Oct-28 18:31S 36°51' E 174°46'0 0.0
2015-Oct-27 18:31S 36°51' E 174°46'6 0.4
2015-Oct-27 05:15S 36°51' E 174°53'6 3.5
2015-Oct-27 03:34S 36°51' E 174°46'5 2.0
2015-Oct-27 01:12S 36°50' E 174°52'2 0.8
2015-Oct-26 23:15S 36°51' E 174°53'0 0.0
2015-Oct-26 20:04S 36°51' E 174°53'  

Dump ship's entire track history